This is the latest recevied weather packets stored in our database for station/object F4THN-13. If no packets are shown the sender has not sent any weather packets the latest 10 day(s).
| Time | Temp. | Humidity | Pressure | Rain* | Wind** | Luminosity | Snow |
|---|---|---|---|---|---|---|---|
| 1777682854 | 15.56° C | 45% | 1023.5 hPa | 0 mm | - | - | - |
| 1777681354 | 15.56° C | 46% | 1023.4 hPa | 0 mm | - | - | - |
| 1777679854 | 16.11° C | 47% | 1023.6 hPa | 0 mm | - | - | - |
| 1777678354 | 16.67° C | 47% | 1023.6 hPa | 0 mm | - | - | - |
| 1777676854 | 16.67° C | 48% | 1023.3 hPa | 0 mm | - | - | - |
| 1777675353 | 17.22° C | 48% | 1023.3 hPa | 0 mm | - | - | - |
| 1777673854 | 17.78° C | 51% | 1023.2 hPa | 0 mm | - | - | - |
| 1777672353 | 17.78° C | 53% | 1023.1 hPa | 0 mm | - | - | - |
| 1777670853 | 18.33° C | 54% | 1022.9 hPa | 0 mm | - | - | - |
| 1777669353 | 18.33° C | 54% | 1022.8 hPa | 0 mm | - | - | - |
| 1777667853 | 18.33° C | 55% | 1022.6 hPa | 0 mm | - | - | - |
| 1777666352 | 18.33° C | 55% | 1022.6 hPa | 0 mm | - | - | - |
| 1777664852 | 18.89° C | 55% | 1022.1 hPa | 0 mm | - | - | - |
| 1777663352 | 19.44° C | 54% | 1021.9 hPa | 0 mm | - | - | - |
| 1777661852 | 20° C | 52% | 1021.7 hPa | 0 mm | - | - | - |
| 1777660434 | 20.56° C | 51% | 1021.7 hPa | 0 mm | - | - | - |
| 1777660352 | 20.56° C | 51% | 1021.7 hPa | 0 mm | - | - | - |
| 1777658852 | 21.67° C | 49% | 1021.5 hPa | 0 mm | - | - | - |
| 1777657352 | 22.22° C | 48% | 1021.3 hPa | 0 mm | - | - | - |
| 1777655851 | 22.78° C | 47% | 1020.9 hPa | 0 mm | - | - | - |
| 1777654351 | 23.33° C | 46% | 1021 hPa | 0 mm | - | - | - |
| 1777639319 | 23.33° C | 50% | 1022.3 hPa | 0 mm | - | - | - |
| 1777637819 | 22.78° C | 52% | 1022.4 hPa | 0 mm | - | - | - |
| 1777636319 | 22.78° C | 54% | 1022.8 hPa | 0 mm | - | - | - |
| 1777634819 | 22.22° C | 54% | 1022.9 hPa | 0 mm | - | - | - |
* Rain latest hour (hover to see other rain measurements)
** Current wind speed in m/s (hover to see current wind gust speed)